Terminal Aerodrome Forecast
Issued by NWS

Home | Current Version | Previous Version | Text Only | Print | Product List | Glossary On
Versions: 1 2 3 4 5 6 7 8 9 10 11 12 13 14 15 16 17 18 19 20 21 22 23 24
000
FTUS45 KCYS 020522
TAFLAR
TAF
KLAR 020522Z 0206/0306 VRB05KT P6SM BKN100
     FM021800 05012G20KT 1SM -SN OVC008
     FM030300 33007KT 5SM BR VCSH SCT008 BKN015=

USA.gov is the U.S. government's official web portal to all federal, state and local government web resources and services.